ETF

A B C D E F G H I J K L M N O P Q R S T U V W X Y Z
Denominazione Valore Var % Data Min Max Controvalore
HARBOR DISRUPTIVE INNOVATION ETF 12,3000 0,90% Data28/09/2023 12,3000 12,3000 12
HARBOR ETF TRUST 24,4500 0,91% Data28/09/2023 24,4100 24,4800 3.985
HARBOR ETF TRUST 18,1400 0,83% Data28/09/2023 18,1200 18,2300 961
HARBOR ETF TRUST 23,1700 -0,26% Data28/09/2023 23,1100 23,3100 20.112
HARBOR ETF TRUST 17,8100 0,85% Data28/09/2023 17,6300 17,9200 2.939
HARBOR ETF TRUST HARBOR SCIENTIFIC ALPHA 41,7900 0,34% Data28/09/2023 41,7900 41,7900 42
HARBOR ETF TRUST HARBOR SCIENTIFIC ALPHA 42,9900 0,37% Data28/09/2023 42,7700 42,9900 258
HARBOR HEALTH CARE ETF 22,3400 0,68% Data28/09/2023 22,3400 22,5600 22
HARTFORD LARGE CAP GROWTH ETF 14,5100 0,83% Data28/09/2023 14,3700 14,5200 160
HARTFORD LONGEVITY ECONOMY ETF 24,2700 1,17% Data28/09/2023 24,2700 24,2700 24
HARTFORD MULTIFACTOR SMALL CAP ETF 36,3500 1,00% Data28/09/2023 36,0200 36,4800 1.018
HARTFORD MUNICIPAL OPPORTUNITIES ETF 36,7300 -0,30% Data28/09/2023 36,6500 36,8500 32.910
HARTFORD SCHRODERS TAX-AWARE BOND ETF 18,2500 -0,49% Data28/09/2023 18,2000 18,2900 6.169
HARTFORD SUSTAINABLE INCOME ETF 32,2700 -0,19% Data28/09/2023 32,1100 32,2700 484
HARTFORD TOTAL RETURN BOND ETF 32,0900 -0,06% Data28/09/2023 31,8800 32,0900 88.472
HCM DEFENDER 100 INDEX ETF 44,7600 1,04% Data28/09/2023 44,0000 45,0600 10.921
HCM DEFENDER 500 INDEX ETF 37,4600 0,73% Data28/09/2023 37,0900 37,6000 5.507
HOME APPRECIATION US REIT ETF 14,7300 0,61% Data28/09/2023 14,6900 14,8200 2.696
HORIZON KINETICS MEDICAL ETF 29,3000 -0,34% Data28/09/2023 29,2700 29,3000 29
HOYA CAPITAL HIGH DIVIDEND YIELD ETF 9,7500 1,35% Data28/09/2023 9,6400 9,7600 1.170
HOYA CAPITAL HOUSING ETF 35,6800 0,90% Data28/09/2023 35,3200 35,6800 250
HULL TACTICAL US ETF 31,4500 0,38% Data28/09/2023 31,3400 31,7400 4.057
HUMANKIND US STOCK ETF 27,1000 0,63% Data28/09/2023 27,1000 27,1200 1.436